Ristna, Eesti

11:49 EEST 22. Juuli 2017 (GMT +0300)
Kardla | | Change Station

Elev 13 ft 58.99 °N, 22.83 °E | Updated 59 minutes ago

Lauspilvisus
Lauspilvisus
61 °F
Feels Like 61 °F
Põhja
9
Tuul Muutliku suunaga Tuul from Põhjaloode

Täna
High -- | Low -- °F
--% Chance of Precip.
Eile
High -- | Low -- °F
Precip. -- tolli
Õhurõhk 30.12 tolli
Nähtavus 6.2 miili
Pilved Peamiselt pilves 1300 ft
Kastepunkt 52 °F
Õhuniiskus 72%
Sademed 0.00 tolli
Lume paksus Not available.
4:58 AM 10:16 PM
Poolkuu (viimane veerand), 2% visible
METAR EEKA 220750Z 33008KT 9999 BKN013 16/11 Q1020
Õhurõhk 30.12 tolli
Nähtavus 6.2 miili
Pilved Peamiselt pilves 1300 ft
Kastepunkt 52 °F
Õhuniiskus 72%
Sademed 0.00 tolli
Lume paksus Not available.
4:58 AM 10:16 PM
Poolkuu (viimane veerand), 2% visible
METAR EEKA 220750Z 33008KT 9999 BKN013 16/11 Q1020

Get Severe Weather Alerts

Thanks for signing up!

Be on the lookout for a verification email in your inbox.

You'll start receiving the daily forecast at 6 AM.

×

10-Day Weather Forecast

×

Almanac

Astronoomia

Jul. 22, 2017 Tõus Loojang
Tegelik aeg
Tsiviilne hämarik
Nautiline hämarik
Astronoomiline hämarik
Kuu
Nähtava valguse kestus
Päeva pikkus
Tomorrow will be .
, % of the Moon is Illuminated

Tänased ekstreemumid

Country Highs Country Lows

Community

WunderPhotos

Category 6

Welcome to Category 6. This is the collective home for Weather Underground's featured writeups by Dr. Jeff Masters (right), Bob Henson (left), Chris Burt, and other regular contributors.

Nearby

Õhukvaliteet

  Õhukvaliteet ÕK indeks Reostaja
Not available.

Lume paksus

Station Depth Kõrgus

Maavärinate aktiivsus

Linn Distance Mag. Time & Date
Minimum magnitude displayed is 2.5.

Coastal Water Temperatures

Koht Temperatuur

Stations

Nearby Weather Stations

Jaama asukoht Temp. Tuulekülm Kastepunkt Õhuniiskus Tuul Precip. Elev Uuendatud Tüüp